createdAt,value
2017-01-20T00:00:59.164Z,5.77
2017-01-20T00:02:07.859Z,5.87
2017-01-20T00:03:16.551Z,5.9
2017-01-20T00:04:25.245Z,5.97
2017-01-20T00:05:33.992Z,5.79
2017-01-20T00:06:42.688Z,5.92
2017-01-20T00:07:51.418Z,5.99
2017-01-20T00:09:00.104Z,5.95
2017-01-20T00:10:08.796Z,5.87
2017-01-20T00:11:17.534Z,5.94
2017-01-20T00:12:26.254Z,5.81
2017-01-20T00:13:34.940Z,5.79
2017-01-20T00:14:43.642Z,5.77
2017-01-20T00:15:52.336Z,5.73
2017-01-20T00:17:01.078Z,5.67
2017-01-20T00:18:09.772Z,5.72
2017-01-20T00:19:18.461Z,5.76
2017-01-20T00:20:27.160Z,5.7
2017-01-20T00:21:35.852Z,5.69
2017-01-20T00:22:44.590Z,5.72
2017-01-20T00:23:53.285Z,5.72
2017-01-20T00:25:01.996Z,5.8
2017-01-20T00:26:10.687Z,5.8
2017-01-20T00:27:19.382Z,5.76
2017-01-20T00:28:28.127Z,5.77
2017-01-20T00:29:36.816Z,5.81
2017-01-20T00:30:45.514Z,5.73
2017-01-20T00:31:54.208Z,5.67
2017-01-20T00:33:02.902Z,5.54
2017-01-20T00:34:11.697Z,5.69
2017-01-20T00:35:20.385Z,5.65
2017-01-20T00:36:29.074Z,5.64
2017-01-20T00:37:37.780Z,5.67
2017-01-20T00:38:46.469Z,5.69
2017-01-20T00:39:55.215Z,5.73
2017-01-20T00:41:03.913Z,5.83
2017-01-20T00:42:12.606Z,5.83
2017-01-20T00:43:21.300Z,5.99
2017-01-20T00:44:29.994Z,6.05
2017-01-20T00:45:38.735Z,5.97
2017-01-20T00:46:47.431Z,6.05
2017-01-20T00:47:56.121Z,6.05
2017-01-20T00:49:05.204Z,6.05
2017-01-20T00:50:13.896Z,6.05
2017-01-20T00:51:22.636Z,6.01
2017-01-20T00:52:31.323Z,6.02
2017-01-20T00:53:40.013Z,6.17
2017-01-20T00:54:48.708Z,6.28
2017-01-20T00:55:57.403Z,6.09
2017-01-20T00:57:06.144Z,6.2
2017-01-20T00:58:14.838Z,6.26
2017-01-20T00:59:23.529Z,6.22
2017-01-20T01:00:32.217Z,6.17
2017-01-20T01:01:40.908Z,6.26
2017-01-20T01:02:49.648Z,6.35
2017-01-20T01:03:58.367Z,6.38
2017-01-20T01:05:07.063Z,6.35
2017-01-20T01:06:15.751Z,6.41
2017-01-20T01:07:24.438Z,6.46
2017-01-20T01:08:33.181Z,6.49
2017-01-20T01:09:41.880Z,6.46
2017-01-20T01:10:50.576Z,6.54
2017-01-20T01:11:59.267Z,6.6
2017-01-20T01:13:07.966Z,6.6
2017-01-20T01:14:17.004Z,6.62
2017-01-20T01:15:25.700Z,6.57
2017-01-20T01:16:34.391Z,6.53
2017-01-20T01:17:43.087Z,6.53
2017-01-20T01:18:51.780Z,6.46
2017-01-20T01:20:00.522Z,6.5
2017-01-20T01:21:09.220Z,6.38
2017-01-20T01:22:17.915Z,6.38
2017-01-20T01:23:26.606Z,6.36
2017-01-20T01:24:35.298Z,6.41
2017-01-20T01:25:44.036Z,6.44
2017-01-20T01:26:52.725Z,6.32
2017-01-20T01:28:01.421Z,6.22
2017-01-20T01:29:10.116Z,6.15
2017-01-20T01:30:18.812Z,6.13
2017-01-20T01:31:27.978Z,6.13
2017-01-20T01:32:36.671Z,6.15
2017-01-20T01:33:45.361Z,6.22
2017-01-20T01:34:54.052Z,6.35
2017-01-20T01:36:02.742Z,6.32
2017-01-20T01:37:11.482Z,6.36
2017-01-20T01:38:20.172Z,6.39
2017-01-20T01:39:28.862Z,6.47
2017-01-20T01:40:37.552Z,6.52
2017-01-20T01:41:46.246Z,6.49
2017-01-20T01:42:54.991Z,6.59
2017-01-20T01:44:03.677Z,6.59
2017-01-20T01:45:12.372Z,6.57
2017-01-20T01:46:21.061Z,6.78
2017-01-20T01:47:29.753Z,6.74
2017-01-20T01:48:38.498Z,6.77
2017-01-20T01:49:47.189Z,6.74
2017-01-20T01:50:55.880Z,6.77
2017-01-20T01:52:04.574Z,6.74
2017-01-20T01:53:13.269Z,6.78
2017-01-20T01:54:22.012Z,6.8
2017-01-20T01:55:30.707Z,6.82
2017-01-20T01:56:39.399Z,6.9
2017-01-20T01:57:48.085Z,6.96
2017-01-20T01:58:56.776Z,7.01
2017-01-20T02:00:05.520Z,6.89
2017-01-20T02:01:14.211Z,7.03
2017-01-20T02:02:22.907Z,7
2017-01-20T02:03:31.602Z,7.01
2017-01-20T02:04:40.291Z,7.05
2017-01-20T02:05:49.031Z,7.07
2017-01-20T02:06:57.723Z,7.07
2017-01-20T02:08:06.420Z,7.08
2017-01-20T02:09:15.116Z,7.11
2017-01-20T02:10:23.805Z,7.18
2017-01-20T02:11:32.548Z,7.14
2017-01-20T02:12:41.242Z,7.29
2017-01-20T02:13:49.934Z,7.33
2017-01-20T02:14:58.629Z,7.39
2017-01-20T02:16:07.320Z,7.53
2017-01-20T02:17:16.062Z,7.56
2017-01-20T02:18:24.754Z,7.62
2017-01-20T02:19:33.462Z,7.56
2017-01-20T02:20:42.157Z,7.59
2017-01-20T02:21:50.849Z,7.62
2017-01-20T02:22:59.588Z,7.61
2017-01-20T02:24:08.281Z,7.7
2017-01-20T02:25:16.973Z,7.77
2017-01-20T02:26:25.663Z,7.78
2017-01-20T02:27:34.363Z,7.8
2017-01-20T02:28:43.154Z,7.77
2017-01-20T02:29:51.847Z,7.88
2017-01-20T02:31:00.550Z,7.8
2017-01-20T02:32:09.277Z,7.78
2017-01-20T02:33:17.971Z,7.8
2017-01-20T02:34:26.738Z,7.83
2017-01-20T02:35:35.462Z,7.75
2017-01-20T02:36:44.161Z,7.78
2017-01-20T02:37:52.850Z,7.83
2017-01-20T02:39:01.546Z,7.8
2017-01-20T02:40:10.286Z,7.87
2017-01-20T02:41:18.979Z,7.87
2017-01-20T02:42:27.681Z,7.77
2017-01-20T02:43:36.379Z,7.87
2017-01-20T02:44:45.071Z,7.8
2017-01-20T02:45:53.811Z,7.84
2017-01-20T02:47:02.503Z,7.83
2017-01-20T02:48:11.596Z,7.75
2017-01-20T02:49:20.282Z,7.77
2017-01-20T02:50:28.973Z,7.7
2017-01-20T02:51:37.723Z,7.78
2017-01-20T02:52:46.416Z,7.67
2017-01-20T02:53:55.108Z,7.75
2017-01-20T02:55:03.808Z,7.67
2017-01-20T02:56:12.495Z,7.83
2017-01-20T02:57:21.233Z,7.77
2017-01-20T02:58:29.924Z,7.72
2017-01-20T02:59:38.621Z,7.66
2017-01-20T03:00:47.313Z,7.7
2017-01-20T03:01:56.004Z,7.64
2017-01-20T03:03:04.753Z,7.67
2017-01-20T03:04:13.468Z,7.59
2017-01-20T03:05:22.156Z,7.62
2017-01-20T03:06:30.852Z,7.61
2017-01-20T03:07:39.541Z,7.64
2017-01-20T03:08:48.286Z,7.61
2017-01-20T03:09:56.975Z,7.66
2017-01-20T03:11:05.669Z,7.55
2017-01-20T03:12:14.366Z,7.53
2017-01-20T03:13:23.059Z,7.59
2017-01-20T03:14:31.834Z,7.69
2017-01-20T03:15:40.526Z,7.64
2017-01-20T03:16:49.214Z,7.69
2017-01-20T03:17:57.907Z,7.7
2017-01-20T03:19:06.599Z,7.75
2017-01-20T03:20:15.286Z,7.7
2017-01-20T03:21:23.981Z,7.78
2017-01-20T03:22:32.674Z,7.66
2017-01-20T03:23:41.363Z,7.67
2017-01-20T03:24:50.054Z,7.67
2017-01-20T03:25:58.752Z,7.81
2017-01-20T03:27:07.447Z,7.84
2017-01-20T03:28:16.138Z,7.69
2017-01-20T03:29:24.829Z,7.81
2017-01-20T03:30:33.515Z,7.81
2017-01-20T03:31:42.219Z,7.7
2017-01-20T03:32:50.908Z,7.61
2017-01-20T03:33:59.600Z,7.66
2017-01-20T03:35:08.312Z,7.61
2017-01-20T03:36:17.012Z,7.64
2017-01-20T03:37:25.710Z,7.64
2017-01-20T03:38:34.405Z,7.64
2017-01-20T03:39:43.099Z,7.59
2017-01-20T03:40:51.809Z,7.51
2017-01-20T03:42:00.506Z,7.58
2017-01-20T03:43:09.195Z,7.59
2017-01-20T03:44:17.888Z,7.56
2017-01-20T03:45:26.582Z,7.5
2017-01-20T03:46:35.273Z,7.47
2017-01-20T03:47:43.965Z,7.47
2017-01-20T03:48:52.655Z,7.47
2017-01-20T03:50:01.351Z,7.58
2017-01-20T03:51:10.045Z,7.53
2017-01-20T03:52:18.738Z,7.46
2017-01-20T03:53:27.433Z,7.51
2017-01-20T03:54:36.123Z,7.47
2017-01-20T03:55:44.820Z,7.46
2017-01-20T03:56:53.514Z,7.5
2017-01-20T03:58:02.239Z,7.51
2017-01-20T03:59:10.928Z,7.55
2017-01-20T04:00:19.623Z,7.46
2017-01-20T04:01:28.321Z,7.4
2017-01-20T04:02:37.017Z,7.39
2017-01-20T04:03:45.721Z,7.36
2017-01-20T04:04:54.415Z,7.4
2017-01-20T04:06:03.134Z,7.33
2017-01-20T04:07:11.822Z,7.46
2017-01-20T04:08:20.510Z,7.25
2017-01-20T04:09:29.209Z,7.25
2017-01-20T04:10:37.940Z,7.29
2017-01-20T04:11:47.035Z,7.26
2017-01-20T04:12:55.726Z,7.14
2017-01-20T04:14:04.423Z,7.14
2017-01-20T04:15:13.116Z,7.21
2017-01-20T04:16:21.803Z,7.13
2017-01-20T04:17:30.497Z,7.23
2017-01-20T04:18:39.188Z,7.21
2017-01-20T04:19:47.902Z,7.1
2017-01-20T04:20:56.593Z,7.18
2017-01-20T04:22:05.314Z,7.21
2017-01-20T04:23:14.004Z,7.22
2017-01-20T04:24:22.705Z,7.19
2017-01-20T04:25:31.394Z,7.25
2017-01-20T04:26:40.087Z,7.23
2017-01-20T04:27:48.777Z,7.23
2017-01-20T04:28:57.870Z,7.26
2017-01-20T04:30:06.565Z,7.32
2017-01-20T04:31:15.267Z,7.25
2017-01-20T04:32:23.958Z,7.26
2017-01-20T04:33:32.675Z,7.26
2017-01-20T04:34:41.367Z,7.25
2017-01-20T04:35:50.056Z,7.26
2017-01-20T04:36:58.746Z,7.23
2017-01-20T04:38:07.438Z,7.28
2017-01-20T04:39:16.154Z,7.19
2017-01-20T04:40:24.848Z,7.28
2017-01-20T04:41:33.535Z,7.28
2017-01-20T04:42:42.622Z,7.29
2017-01-20T04:43:51.312Z,7.28
2017-01-20T04:45:00.005Z,7.23
2017-01-20T04:46:08.698Z,7.32
2017-01-20T04:47:17.395Z,7.29
2017-01-20T04:48:26.084Z,7.37
2017-01-20T04:49:34.770Z,7.36
2017-01-20T04:50:43.465Z,7.46
2017-01-20T04:51:52.161Z,7.48
2017-01-20T04:53:00.857Z,7.56
2017-01-20T04:54:09.552Z,7.56
2017-01-20T04:55:18.244Z,7.51
2017-01-20T04:56:26.940Z,7.51
2017-01-20T04:57:35.632Z,7.44
2017-01-20T04:58:44.324Z,7.47
2017-01-20T04:59:53.014Z,7.41
2017-01-20T05:01:01.705Z,7.33
2017-01-20T05:02:10.400Z,7.4
2017-01-20T05:03:19.099Z,7.33
2017-01-20T05:04:27.792Z,7.41
2017-01-20T05:05:36.481Z,7.29
2017-01-20T05:06:45.193Z,7.31
2017-01-20T05:07:53.884Z,7.23
2017-01-20T05:09:02.582Z,7.36
2017-01-20T05:10:11.299Z,7.41
2017-01-20T05:11:19.990Z,7.31
2017-01-20T05:12:28.687Z,7.29
2017-01-20T05:13:37.379Z,7.23
2017-01-20T05:14:46.071Z,7.29
2017-01-20T05:15:54.769Z,7.31
2017-01-20T05:17:03.488Z,7.37
2017-01-20T05:18:12.176Z,7.25
2017-01-20T05:19:20.869Z,7.33
2017-01-20T05:20:29.560Z,7.26
2017-01-20T05:21:38.262Z,7.25
2017-01-20T05:22:46.953Z,7.23
2017-01-20T05:23:55.645Z,7.23
2017-01-20T05:25:04.343Z,7.36
2017-01-20T05:26:13.037Z,7.32
2017-01-20T05:27:21.729Z,7.41
2017-01-20T05:28:30.431Z,7.28
2017-01-20T05:29:39.119Z,7.25
2017-01-20T05:30:47.810Z,7.23
2017-01-20T05:31:56.524Z,7.33
2017-01-20T05:33:05.226Z,7.22
2017-01-20T05:34:13.918Z,7.13
2017-01-20T05:35:22.617Z,7.15
2017-01-20T05:36:31.313Z,7.11
2017-01-20T05:37:40.006Z,7.22
2017-01-20T05:38:48.704Z,7.14
2017-01-20T05:39:57.397Z,7.14
2017-01-20T05:41:06.088Z,7.21
2017-01-20T05:42:14.779Z,7.23
2017-01-20T05:43:23.482Z,7.13
2017-01-20T05:44:32.172Z,7.21
2017-01-20T05:45:40.864Z,7.18
2017-01-20T05:46:49.558Z,7.21
2017-01-20T05:47:58.650Z,7.15
2017-01-20T05:49:07.345Z,7.21
2017-01-20T05:50:16.036Z,7.14
2017-01-20T05:51:24.725Z,7.08
2017-01-20T05:52:33.417Z,7.01
2017-01-20T05:53:42.106Z,7.1
2017-01-20T05:54:50.797Z,7.05
2017-01-20T05:55:59.896Z,7.03
2017-01-20T05:57:08.582Z,7.08
2017-01-20T05:58:17.280Z,7.07
2017-01-20T05:59:25.976Z,7
2017-01-20T06:00:34.669Z,6.92
2017-01-20T06:01:43.358Z,7.05
2017-01-20T06:02:52.078Z,7.1
2017-01-20T06:04:00.769Z,7.01
2017-01-20T06:05:09.466Z,6.95
2017-01-20T06:06:18.156Z,7
2017-01-20T06:07:26.844Z,6.92
2017-01-20T06:08:35.534Z,6.82
2017-01-20T06:09:44.224Z,6.86
2017-01-20T06:10:52.917Z,6.9
2017-01-20T06:12:01.607Z,6.92
2017-01-20T06:13:10.297Z,6.9
2017-01-20T06:14:18.991Z,6.82
2017-01-20T06:15:27.681Z,6.83
2017-01-20T06:16:36.373Z,6.82
2017-01-20T06:17:45.465Z,6.8
2017-01-20T06:18:54.162Z,6.83
2017-01-20T06:20:02.854Z,6.72
2017-01-20T06:21:11.550Z,6.77
2017-01-20T06:22:20.247Z,6.78
2017-01-20T06:23:28.961Z,6.8
2017-01-20T06:24:37.662Z,6.78
2017-01-20T06:25:46.360Z,6.85
2017-01-20T06:26:55.450Z,6.89
2017-01-20T06:28:04.145Z,6.86
2017-01-20T06:29:12.847Z,6.87
2017-01-20T06:30:21.537Z,6.9
2017-01-20T06:31:30.249Z,6.96
2017-01-20T06:32:39.349Z,6.89
2017-01-20T06:33:48.040Z,6.87
2017-01-20T06:34:56.733Z,6.96
2017-01-20T06:36:05.424Z,6.85
2017-01-20T06:37:14.113Z,6.93
2017-01-20T06:38:22.808Z,6.83
2017-01-20T06:39:31.901Z,6.92
2017-01-20T06:40:40.599Z,6.9
2017-01-20T06:41:49.287Z,6.89
2017-01-20T06:42:57.982Z,6.92
2017-01-20T06:44:06.675Z,6.85
2017-01-20T06:45:15.368Z,6.93
2017-01-20T06:46:24.069Z,6.93
2017-01-20T06:47:32.758Z,6.8
2017-01-20T06:48:41.455Z,6.92
2017-01-20T06:49:50.152Z,6.92
2017-01-20T06:50:58.845Z,6.97
2017-01-20T06:52:07.569Z,7
2017-01-20T06:53:16.260Z,7.05
2017-01-20T06:54:24.946Z,7
2017-01-20T06:55:33.635Z,6.97
2017-01-20T06:56:42.323Z,6.93
2017-01-20T06:57:51.017Z,6.92
2017-01-20T06:58:59.711Z,6.96
2017-01-20T07:00:08.815Z,6.89
2017-01-20T07:01:17.524Z,6.92
2017-01-20T07:02:26.216Z,6.87
2017-01-20T07:03:34.908Z,6.9
2017-01-20T07:04:43.617Z,6.93
2017-01-20T07:05:52.312Z,6.92
2017-01-20T07:07:01.007Z,6.89
2017-01-20T07:08:10.097Z,6.77
2017-01-20T07:09:18.788Z,6.78
2017-01-20T07:10:27.476Z,6.82
2017-01-20T07:11:36.165Z,6.75
2017-01-20T07:12:44.859Z,6.78
2017-01-20T07:13:53.550Z,6.89
2017-01-20T07:15:02.250Z,6.9
2017-01-20T07:16:10.945Z,6.97
2017-01-20T07:17:19.656Z,6.93
2017-01-20T07:18:28.346Z,7.04
2017-01-20T07:19:37.035Z,7.03
2017-01-20T07:20:45.734Z,7.07
2017-01-20T07:21:54.429Z,7.13
2017-01-20T07:23:03.119Z,7.15
2017-01-20T07:24:11.815Z,7.19
2017-01-20T07:25:20.509Z,7.15
2017-01-20T07:26:29.196Z,7.28
2017-01-20T07:27:37.887Z,7.23
2017-01-20T07:28:46.584Z,7.13
2017-01-20T07:29:55.278Z,7.26
2017-01-20T07:31:03.969Z,7.28
2017-01-20T07:32:12.659Z,7.23
2017-01-20T07:33:21.353Z,7.25
2017-01-20T07:34:30.046Z,7.29
2017-01-20T07:35:38.738Z,7.25
2017-01-20T07:36:47.434Z,7.11
2017-01-20T07:37:56.125Z,7.23
2017-01-20T07:39:04.820Z,7.05
2017-01-20T07:40:13.512Z,7.04
2017-01-20T07:41:22.206Z,7.05
2017-01-20T07:42:30.898Z,7.05
2017-01-20T07:43:39.587Z,7.1
2017-01-20T07:44:48.277Z,7.1
2017-01-20T07:45:57.003Z,7.08
2017-01-20T07:47:05.693Z,7.03
2017-01-20T07:48:14.386Z,7.01
2017-01-20T07:49:23.088Z,7.11
2017-01-20T07:50:31.796Z,7.13
2017-01-20T07:51:40.486Z,7.08
2017-01-20T07:52:49.175Z,7.01
2017-01-20T07:53:57.870Z,7.03
2017-01-20T07:55:06.566Z,7.01
2017-01-20T07:56:15.260Z,7.01
2017-01-20T07:57:23.950Z,7.07
2017-01-20T07:58:32.637Z,7.03
2017-01-20T07:59:41.328Z,7.04
2017-01-20T08:00:50.022Z,7.08
2017-01-20T08:01:58.718Z,6.92
2017-01-20T08:03:07.407Z,7
2017-01-20T08:04:16.101Z,6.87
2017-01-20T08:05:24.798Z,6.8
2017-01-20T08:06:33.488Z,6.74
2017-01-20T08:07:42.183Z,6.77
2017-01-20T08:08:50.877Z,6.77
2017-01-20T08:09:59.573Z,6.74
2017-01-20T08:11:08.265Z,6.57
2017-01-20T08:12:16.961Z,6.6
2017-01-20T08:13:25.653Z,6.6
2017-01-20T08:14:34.384Z,6.57
2017-01-20T08:15:43.074Z,6.57
2017-01-20T08:16:51.770Z,6.5
2017-01-20T08:18:00.906Z,6.54
2017-01-20T08:19:09.597Z,6.53
2017-01-20T08:20:18.291Z,6.6
2017-01-20T08:21:26.987Z,6.64
2017-01-20T08:22:35.676Z,6.6
2017-01-20T08:23:44.364Z,6.59
2017-01-20T08:24:53.058Z,6.65
2017-01-20T08:26:01.752Z,6.75
2017-01-20T08:27:10.444Z,6.85
2017-01-20T08:28:19.141Z,6.9
2017-01-20T08:29:27.833Z,7.05
2017-01-20T08:30:36.523Z,7.11
2017-01-20T08:31:45.221Z,7.1
2017-01-20T08:32:53.911Z,7.08
2017-01-20T08:34:02.639Z,7.05
2017-01-20T08:35:11.332Z,7.05
2017-01-20T08:36:20.066Z,7.11
2017-01-20T08:37:28.759Z,7.1
2017-01-20T08:38:37.459Z,7.1
2017-01-20T08:39:46.150Z,7.01
2017-01-20T08:40:54.841Z,7.01
2017-01-20T08:42:03.535Z,7.08
2017-01-20T08:43:12.226Z,7.03
2017-01-20T08:44:20.923Z,7.07
2017-01-20T08:45:29.615Z,7.15
2017-01-20T08:46:38.316Z,7.03
2017-01-20T08:47:47.014Z,7.07
2017-01-20T08:48:55.717Z,7.13
2017-01-20T08:50:04.410Z,7.05
2017-01-20T08:51:13.104Z,7.01
2017-01-20T08:52:21.802Z,7.1
2017-01-20T08:53:30.493Z,7.14
2017-01-20T08:54:39.188Z,7.1
2017-01-20T08:55:47.883Z,7.11
2017-01-20T08:56:56.572Z,7.05
2017-01-20T08:58:05.667Z,6.97
2017-01-20T08:59:14.365Z,7.03
2017-01-20T09:00:23.073Z,7.01
2017-01-20T09:01:31.766Z,6.87
2017-01-20T09:02:40.500Z,6.78
2017-01-20T09:03:49.193Z,6.78
2017-01-20T09:04:57.889Z,6.74
2017-01-20T09:06:06.590Z,6.59
2017-01-20T09:07:15.287Z,6.56
2017-01-20T09:08:23.974Z,6.47
2017-01-20T09:09:32.663Z,6.47
2017-01-20T09:10:41.352Z,6.5
2017-01-20T09:11:50.041Z,6.52
2017-01-20T09:12:58.739Z,6.64
2017-01-20T09:14:07.429Z,6.6
2017-01-20T09:15:16.116Z,6.62
2017-01-20T09:16:24.806Z,6.77
2017-01-20T09:17:33.503Z,6.74
2017-01-20T09:18:42.197Z,6.8
2017-01-20T09:19:50.888Z,6.8
2017-01-20T09:20:59.583Z,6.87
2017-01-20T09:22:08.290Z,6.82
2017-01-20T09:23:16.975Z,7
2017-01-20T09:24:25.667Z,7.08
2017-01-20T09:25:34.356Z,7.05
2017-01-20T09:26:43.046Z,7.05
2017-01-20T09:27:51.744Z,6.92
2017-01-20T09:29:00.437Z,7.11
2017-01-20T09:30:09.135Z,7.11
2017-01-20T09:31:17.826Z,7.15
2017-01-20T09:32:26.520Z,7.15
2017-01-20T09:33:35.214Z,7.28
2017-01-20T09:34:44.309Z,7.39
2017-01-20T09:35:53.003Z,7.5
2017-01-20T09:37:01.695Z,7.58
2017-01-20T09:38:10.394Z,7.64
2017-01-20T09:39:19.090Z,7.62
2017-01-20T09:40:27.793Z,7.69
2017-01-20T09:41:36.488Z,7.75
2017-01-20T09:42:45.187Z,7.77
2017-01-20T09:43:53.876Z,7.77
2017-01-20T09:45:02.564Z,7.91
2017-01-20T09:46:11.260Z,8.01
2017-01-20T09:47:19.958Z,7.96
2017-01-20T09:48:28.673Z,7.98
2017-01-20T09:49:37.364Z,8.08
2017-01-20T09:50:46.066Z,8.09
2017-01-20T09:51:54.762Z,8.23
2017-01-20T09:53:03.454Z,8.17
2017-01-20T09:54:12.152Z,8.18
2017-01-20T09:55:20.846Z,8.09
2017-01-20T09:56:29.538Z,8.13
2017-01-20T09:57:38.237Z,8.06
2017-01-20T09:58:46.932Z,7.96
2017-01-20T09:59:55.628Z,7.95
2017-01-20T10:01:04.324Z,7.78
2017-01-20T10:02:13.023Z,7.7
2017-01-20T10:03:21.713Z,7.66
2017-01-20T10:04:30.406Z,7.62
2017-01-20T10:05:39.098Z,7.48
2017-01-20T10:06:47.837Z,7.37
2017-01-20T10:07:56.535Z,7.32
2017-01-20T10:09:05.230Z,7.29
2017-01-20T10:10:13.922Z,7.43
2017-01-20T10:11:22.614Z,7.25
2017-01-20T10:12:31.307Z,7.29
2017-01-20T10:13:40.406Z,7.32
2017-01-20T10:14:49.100Z,7.26
2017-01-20T10:15:57.788Z,7.29
2017-01-20T10:17:06.488Z,7.29
2017-01-20T10:18:15.577Z,7.26
2017-01-20T10:19:24.270Z,7.25
2017-01-20T10:20:32.967Z,7.4
2017-01-20T10:21:41.660Z,7.4
2017-01-20T10:22:50.359Z,7.4
2017-01-20T10:23:59.054Z,7.37
2017-01-20T10:25:07.754Z,7.39
2017-01-20T10:26:16.466Z,7.25
2017-01-20T10:27:25.165Z,7.31
2017-01-20T10:28:33.872Z,7.23
2017-01-20T10:29:42.568Z,7.26
2017-01-20T10:30:51.260Z,7.36
2017-01-20T10:31:59.951Z,7.22
2017-01-20T10:33:08.648Z,7.32
2017-01-20T10:34:17.347Z,7.22
2017-01-20T10:35:26.047Z,7.43
2017-01-20T10:36:34.735Z,7.4
2017-01-20T10:37:43.430Z,7.39
2017-01-20T10:38:52.122Z,7.4
2017-01-20T10:40:00.816Z,7.48
2017-01-20T10:41:09.515Z,7.56
2017-01-20T10:42:18.221Z,7.69
2017-01-20T10:43:26.916Z,7.7
2017-01-20T10:44:35.611Z,7.78
2017-01-20T10:45:44.330Z,7.81
2017-01-20T10:46:53.020Z,7.93
2017-01-20T10:48:01.723Z,8.02
2017-01-20T10:49:10.417Z,8.14
2017-01-20T10:50:19.124Z,8.21
2017-01-20T10:51:27.818Z,8.34
2017-01-20T10:52:36.513Z,8.36
2017-01-20T10:53:45.204Z,8.56
2017-01-20T10:54:53.906Z,8.66
2017-01-20T10:56:02.603Z,8.64
2017-01-20T10:57:11.296Z,8.79
2017-01-20T10:58:19.994Z,8.82
2017-01-20T10:59:28.714Z,8.89
2017-01-20T11:00:37.412Z,8.93
2017-01-20T11:01:46.105Z,8.53
2017-01-20T11:02:54.841Z,7.96
2017-01-20T11:04:03.534Z,7.69
2017-01-20T11:05:12.233Z,7.84
2017-01-20T11:06:20.929Z,7.88
2017-01-20T11:07:29.630Z,8.11
2017-01-20T11:08:38.325Z,8.13
2017-01-20T11:09:47.420Z,8.27
2017-01-20T11:10:56.111Z,8.39
2017-01-20T11:12:04.803Z,8.56
2017-01-20T11:13:13.504Z,8.68
2017-01-20T11:14:22.196Z,8.93
2017-01-20T11:15:30.905Z,9.21
2017-01-20T11:16:39.606Z,9.36
2017-01-20T11:17:48.310Z,9.56
2017-01-20T11:18:57.013Z,9.82
2017-01-20T11:20:05.718Z,9.97
2017-01-20T11:21:14.421Z,10.25
2017-01-20T11:22:23.146Z,10.51
2017-01-20T11:23:31.841Z,10.79
2017-01-20T11:24:40.539Z,10.95
2017-01-20T11:25:49.244Z,11.19
2017-01-20T11:26:57.937Z,11.33
2017-01-20T11:28:06.640Z,11.59
2017-01-20T11:29:15.340Z,11.59
2017-01-20T11:30:24.032Z,11.83
2017-01-20T11:31:32.743Z,11.86
2017-01-20T11:32:41.446Z,11.95
2017-01-20T11:33:50.147Z,11.95
2017-01-20T11:34:58.851Z,11.99
2017-01-20T11:36:07.547Z,12.03
2017-01-20T11:37:16.245Z,11.93
2017-01-20T11:38:24.945Z,11.85
2017-01-20T11:39:33.646Z,11.96
2017-01-20T11:40:42.369Z,12.2
2017-01-20T11:41:51.910Z,12.39
2017-01-20T11:43:00.612Z,12.69
2017-01-20T11:44:09.314Z,12.94
2017-01-20T11:45:18.016Z,13.02
2017-01-20T11:46:26.722Z,13.21
2017-01-20T11:47:35.419Z,13.26
2017-01-20T11:48:44.121Z,13.31
2017-01-20T11:49:52.872Z,13.46
2017-01-20T11:51:01.577Z,13.62
2017-01-20T11:52:10.278Z,13.79
2017-01-20T11:53:19.000Z,14.01
2017-01-20T11:54:27.704Z,14.3
2017-01-20T11:55:36.451Z,14.52
2017-01-20T11:56:45.153Z,14.66
2017-01-20T11:57:53.854Z,14.71
2017-01-20T11:59:02.556Z,14.97
2017-01-20T12:00:11.259Z,14.87
2017-01-20T12:01:19.959Z,14.49
2017-01-20T12:02:28.659Z,14.25
2017-01-20T12:03:37.359Z,13.86
2017-01-20T12:04:46.062Z,13.62
2017-01-20T12:05:54.769Z,13.62
2017-01-20T12:07:03.471Z,13.37
2017-01-20T12:08:12.176Z,13.28
2017-01-20T12:09:20.879Z,13.27
2017-01-20T12:10:29.582Z,13.42
2017-01-20T12:11:38.286Z,13.23
2017-01-20T12:12:47.053Z,13.26
2017-01-20T12:13:55.756Z,13.27
2017-01-20T12:15:04.461Z,13.19
2017-01-20T12:16:13.197Z,13.06
2017-01-20T12:17:21.899Z,13.02
2017-01-20T12:18:30.596Z,12.94
2017-01-20T12:19:39.297Z,12.99
2017-01-20T12:20:48.005Z,13.01
2017-01-20T12:21:56.716Z,12.93
2017-01-20T12:23:05.444Z,13.08
2017-01-20T12:24:14.148Z,13.06
2017-01-20T12:25:22.878Z,13.13
2017-01-20T12:26:31.580Z,13.33
2017-01-20T12:27:40.273Z,13.42
2017-01-20T12:28:48.972Z,13.5
2017-01-20T12:29:57.679Z,13.6
2017-01-20T12:31:06.385Z,13.6
2017-01-20T12:32:15.099Z,13.71
2017-01-20T12:33:23.808Z,13.89
2017-01-20T12:34:32.529Z,14.25
2017-01-20T12:35:41.234Z,14.48
2017-01-20T12:36:49.937Z,14.78
2017-01-20T12:37:58.647Z,15.05
2017-01-20T12:39:07.375Z,15.39
2017-01-20T12:40:16.078Z,15.69
2017-01-20T12:41:24.785Z,16.06
2017-01-20T12:42:33.486Z,16.29
2017-01-20T12:43:42.200Z,16.54
2017-01-20T12:44:50.901Z,16.65
2017-01-20T12:45:59.603Z,16.97
2017-01-20T12:47:08.312Z,17.14
2017-01-20T12:48:17.015Z,17.34
2017-01-20T12:49:25.720Z,17.53
2017-01-20T12:50:34.431Z,17.9
2017-01-20T12:51:43.136Z,17.84
2017-01-20T12:52:51.862Z,17.72
2017-01-20T12:54:00.604Z,17.57
2017-01-20T12:55:09.318Z,17.53
2017-01-20T12:56:18.033Z,17.38
2017-01-20T12:57:26.742Z,17.39
2017-01-20T12:58:35.444Z,17.1
2017-01-20T12:59:44.548Z,17.01
2017-01-20T13:00:53.254Z,16.64
2017-01-20T13:02:01.967Z,16.39
2017-01-20T13:03:10.680Z,16.28
2017-01-20T13:04:19.389Z,16.12
2017-01-20T13:05:28.095Z,16.08
2017-01-20T13:06:36.803Z,16.06
2017-01-20T13:07:45.504Z,15.88
2017-01-20T13:08:54.218Z,15.84
2017-01-20T13:10:02.951Z,15.69
2017-01-20T13:11:11.655Z,15.65
2017-01-20T13:12:20.357Z,15.66
2017-01-20T13:13:29.074Z,15.66
2017-01-20T13:14:37.789Z,15.41
2017-01-20T13:15:46.499Z,15.48
2017-01-20T13:16:55.203Z,15.55
2017-01-20T13:18:03.911Z,15.67
2017-01-20T13:19:12.616Z,15.65
2017-01-20T13:20:21.323Z,15.57
2017-01-20T13:21:30.027Z,15.37
2017-01-20T13:22:38.731Z,15.44
2017-01-20T13:23:47.443Z,15.18
2017-01-20T13:24:56.150Z,14.96
2017-01-20T13:26:04.852Z,14.63
2017-01-20T13:27:13.562Z,14.45
2017-01-20T13:28:22.272Z,14.33
2017-01-20T13:29:30.975Z,14.07
2017-01-20T13:30:39.676Z,13.83
2017-01-20T13:31:48.375Z,13.6
2017-01-20T13:32:57.087Z,13.37
2017-01-20T13:34:05.790Z,13.31
2017-01-20T13:35:14.494Z,12.9
2017-01-20T13:36:23.202Z,12.63
2017-01-20T13:37:31.909Z,12.48
2017-01-20T13:38:40.615Z,12.36
2017-01-20T13:39:49.316Z,12.12
2017-01-20T13:40:58.019Z,11.93
2017-01-20T13:42:06.733Z,11.6
2017-01-20T13:43:15.442Z,11.48
2017-01-20T13:44:24.139Z,11.25
2017-01-20T13:45:32.840Z,11.07
2017-01-20T13:46:41.544Z,11
2017-01-20T13:47:50.250Z,10.89
2017-01-20T13:48:58.953Z,10.75
2017-01-20T13:50:07.656Z,10.59
2017-01-20T13:51:16.355Z,10.48
2017-01-20T13:52:25.057Z,10.34
2017-01-20T13:53:33.750Z,10.33
2017-01-20T13:54:42.870Z,10.23
2017-01-20T13:55:51.571Z,10.03
2017-01-20T13:57:00.292Z,9.95
2017-01-20T13:58:08.995Z,9.88
2017-01-20T13:59:17.694Z,9.82
2017-01-20T14:00:26.407Z,9.81
2017-01-20T14:01:35.128Z,9.62
2017-01-20T14:02:43.825Z,9.64
2017-01-20T14:03:52.532Z,9.67
2017-01-20T14:05:01.231Z,9.56
2017-01-20T14:06:09.923Z,9.55
2017-01-20T14:07:18.622Z,9.56
2017-01-20T14:08:27.322Z,9.44
2017-01-20T14:09:36.017Z,9.42
2017-01-20T14:10:44.711Z,9.34
2017-01-20T14:11:53.410Z,9.26
2017-01-20T14:13:02.140Z,9.22
2017-01-20T14:14:10.835Z,9.26
2017-01-20T14:15:19.533Z,9.12
2017-01-20T14:16:28.232Z,9.12
2017-01-20T14:17:36.926Z,9.15
2017-01-20T14:18:45.623Z,9.09
2017-01-20T14:19:54.317Z,9.09
2017-01-20T14:21:03.013Z,9.11
2017-01-20T14:22:11.716Z,9.08
2017-01-20T14:23:20.417Z,9.08
2017-01-20T14:24:29.110Z,8.99
2017-01-20T14:25:37.809Z,8.99
2017-01-20T14:26:46.620Z,8.96
2017-01-20T14:27:55.312Z,8.92
2017-01-20T14:29:04.033Z,8.77
2017-01-20T14:30:12.727Z,8.77
2017-01-20T14:31:21.449Z,8.74
2017-01-20T14:32:30.152Z,8.72
2017-01-20T14:33:38.867Z,8.72
2017-01-20T14:34:47.959Z,8.61
2017-01-20T14:35:56.655Z,8.57
2017-01-20T14:37:05.355Z,8.53
2017-01-20T14:38:14.056Z,8.42
2017-01-20T14:39:22.750Z,8.38
2017-01-20T14:40:31.449Z,8.2
2017-01-20T14:41:40.169Z,8.23
2017-01-20T14:42:48.870Z,8.05
2017-01-20T14:43:57.962Z,7.93
2017-01-20T14:45:06.658Z,7.87
2017-01-20T14:46:15.347Z,7.74
2017-01-20T14:47:24.047Z,7.72
2017-01-20T14:48:32.739Z,7.58
2017-01-20T14:49:41.436Z,7.67
2017-01-20T14:50:50.131Z,7.51
2017-01-20T14:51:58.822Z,7.39
2017-01-20T14:53:07.516Z,7.28
2017-01-20T14:54:16.218Z,7.21
2017-01-20T14:55:24.914Z,7.14
2017-01-20T14:56:33.609Z,7.03
2017-01-20T14:57:42.303Z,6.96
2017-01-20T14:58:51.004Z,6.82
2017-01-20T14:59:59.700Z,6.83
2017-01-20T15:01:08.399Z,6.75
2017-01-20T15:02:17.100Z,6.72
2017-01-20T15:03:25.796Z,6.56
2017-01-20T15:04:34.493Z,6.59
2017-01-20T15:05:43.185Z,6.49
2017-01-20T15:06:51.882Z,6.5
2017-01-20T15:08:00.574Z,6.46
2017-01-20T15:09:09.268Z,6.52
2017-01-20T15:10:17.958Z,6.53
2017-01-20T15:11:26.681Z,6.47
2017-01-20T15:12:35.406Z,6.46
2017-01-20T15:13:44.098Z,6.36